Detalii statie TRANSAVIA GRUP [00001CF7]

Toti senzorii

Date Temperatura solului [C]Precipitatii [mm]Voltaj baterie [mV]HC Air temperature [C]HC Relative humidity [%]Punctul de roua [C]
medieminmaxsumaultimamedieminmaxmediemediemin
2019-08-15 20:00:00 21.8 21.8 22 0 6874 18.62 17.94 19.29 0 0 0
2019-08-15 21:00:00 21.7 21.6 21.9 0 6844 17.62 17.51 17.75 0 0 0
2019-08-15 22:00:00 21.6 21.6 21.7 0 6826 17.28 17.08 17.45 0 0 0
2019-08-15 23:00:00 21.5 21.5 21.6 0 6816 16.99 16.78 17.24 0 0 0
2019-08-16 00:00:00 21.4 21.2 21.5 0 6806 16.6 16.45 16.77 0 0 0
2019-08-16 01:00:00 21.2 21.2 21.3 0 6796 16.53 16.38 16.67 0 0 0
2019-08-16 02:00:00 21.1 21 21.2 0 6776 16.24 16.07 16.52 0 0 0
2019-08-16 03:00:00 21 21 21.2 0 6756 15.91 15.38 16.29 0 0 0
2019-08-16 04:00:00 20.9 20.9 21.1 0 6748 14.99 14.89 15.15 0 0 0
2019-08-16 05:00:00 20.8 20.7 21 0 6728 14.63 14.46 14.75 0 0 0
2019-08-16 06:00:00 20.6 20.5 20.8 0 6718 14.48 14.37 14.64 0 0 0
2019-08-16 07:00:00 20.5 20.5 20.7 0 6766 14.7 14.4 14.96 0 0 0
2019-08-16 08:00:00 20.3 20.3 20.4 0 6952 15.51 15.02 15.97 0 0 0
2019-08-16 09:00:00 20.3 20.3 20.5 0 7206 16.77 15.94 17.7 0 0 0
2019-08-16 10:00:00 20.3 20.3 20.5 0 7206 18.22 17.21 18.79 0 0 0
2019-08-16 11:00:00 20.4 20.3 20.5 0 7236 19.78 18.5 20.83 0 0 0
2019-08-16 12:00:00 20.5 20.4 20.8 0 7254 21.65 19.44 23.44 0 0 0
2019-08-16 13:00:00 20.8 20.6 21.1 0 7284 23.73 22.81 24.87 0 0 0
2019-08-16 14:00:00 21.3 21.1 21.5 0 7304 24.35 23.46 25.41 0 0 0
2019-08-16 15:00:00 21.7 21.6 22.1 0 7304 24.27 23.07 25.42 0 0 0
2019-08-16 16:00:00 22.1 22 22.4 0 7304 23.51 23 24 0 0 0
2019-08-16 17:00:00 22.4 22.3 22.5 0 7294 23.47 22.18 25.44 0 0 0
2019-08-16 18:00:00 22.5 22.3 22.7 0 7274 21.67 21.43 22.08 0 0 0
2019-08-16 19:00:00 22.4 22.3 22.6 0 6904 21.02 20.85 21.23 0 0 0
2019-08-16 20:00:00 22.4 22.3 22.6 0 6874 19.61 18.7 20.99 0 0 0
2019-08-16 21:00:00 22.2 22.2 22.4 0 6854 17.91 17.21 18.62 0 0 0
2019-08-16 22:00:00 22.1 22.1 22.3 0 6834 16.74 16.34 17.2 0 0 0
2019-08-16 23:00:00 21.9 21.8 22.1 0 6816 15.43 14.36 16.48 0 0 0
2019-08-17 00:00:00 21.7 21.6 21.9 0 6796 13.68 13.3 14.31 0 0 0
2019-08-17 01:00:00 21.4 21.4 21.6 0 6776 13.12 12.87 13.28 0 0 0
2019-08-17 02:00:00 21.2 21 21.5 0 6756 12.39 11.66 12.88 0 0 0
2019-08-17 03:00:00 21 20.7 21.2 0 6756 11.56 11.13 11.9 0 0 0
2019-08-17 04:00:00 20.7 20.6 20.9 0 6738 10.72 10.32 11.33 0 0 0
2019-08-17 05:00:00 20.5 20.3 20.8 0 6728 10.66 10.21 10.88 0 0 0
2019-08-17 06:00:00 20.2 20.1 20.3 0 6718 10.23 10.04 10.63 0 0 0
2019-08-17 07:00:00 20 19.9 20.2 0 6806 11.36 10.28 12.45 0 0 0
2019-08-17 08:00:00 19.8 19.7 20 0 7070 13.55 12.41 15.84 0 0 0
2019-08-17 09:00:00 19.7 19.6 19.9 0 7226 17.28 16.02 19.08 0 0 0
2019-08-17 10:00:00 19.7 19.6 19.8 0 7236 20.74 19.61 21.69 0 0 0
2019-08-17 11:00:00 19.8 19.5 20.1 0 7254 22.33 21.66 23.34 0 0 0
2019-08-17 12:00:00 20.1 19.9 20.3 0 7274 23.6 21.87 25.76 0 0 0
2019-08-17 13:00:00 20.4 20.3 20.7 0 7294 24.53 23.76 25.31 0 0 0
2019-08-17 14:00:00 20.9 20.7 21.2 0 7294 24.67 23.71 25.75 0 0 0
2019-08-17 15:00:00 21.3 21.2 21.5 0 7294 25.47 23.55 26.87 0 0 0
2019-08-17 16:00:00 21.6 21.6 21.7 0 7304 25.05 24.03 26.04 0 0 0
2019-08-17 17:00:00 21.8 21.8 22 0 7158 23.91 23.58 24.54 0 0 0
2019-08-17 18:00:00 21.9 21.9 22 0 6952 22.74 22.13 23.71 0 0 0
2019-08-17 19:00:00 21.9 21.8 22 0 6942 22.14 21.2 22.88 0 0 0